createdAt,value
2023-04-02T00:00:21.588Z,24.40
2023-04-02T00:03:00.474Z,20.80
2023-04-02T00:05:55.935Z,23.83
2023-04-02T00:08:29.707Z,23.75
2023-04-02T00:11:01.653Z,21.83
2023-04-02T00:13:41.479Z,20.17
2023-04-02T00:16:20.376Z,20.92
2023-04-02T00:18:53.970Z,18.83
2023-04-02T00:21:27.270Z,24.23
2023-04-02T00:23:57.831Z,20.85
2023-04-02T00:26:33.245Z,21.08
2023-04-02T00:29:03.824Z,23.50
2023-04-02T00:31:36.456Z,21.15
2023-04-02T00:34:06.291Z,18.75
2023-04-02T00:36:37.174Z,22.17
2023-04-02T00:39:17.260Z,19.33
2023-04-02T00:41:48.043Z,15.27
2023-04-02T00:44:22.052Z,17.75
2023-04-02T00:46:54.616Z,19.17
2023-04-02T00:49:34.049Z,24.55
2023-04-02T00:52:07.862Z,20.10
2023-04-02T00:54:45.328Z,15.27
2023-04-02T00:57:19.381Z,15.77
2023-04-02T00:59:58.426Z,21.85
2023-04-02T01:02:33.101Z,17.30
2023-04-02T01:05:03.629Z,13.60
2023-04-02T01:08:05.203Z,19.27
2023-04-02T01:10:53.034Z,16.63
2023-04-02T01:13:29.079Z,16.90
2023-04-02T01:16:07.542Z,16.90
2023-04-02T01:18:51.990Z,17.83
2023-04-02T01:21:43.192Z,17.02
2023-04-02T01:24:14.338Z,16.40
2023-04-02T01:26:54.080Z,17.33
2023-04-02T01:29:28.893Z,17.10
2023-04-02T01:32:02.619Z,19.83
2023-04-02T01:34:32.235Z,19.40
2023-04-02T01:37:32.439Z,16.92
2023-04-02T01:40:24.580Z,21.52
2023-04-02T01:43:03.741Z,21.77
2023-04-02T01:45:35.247Z,15.50
2023-04-02T01:48:10.166Z,16.27
2023-04-02T01:50:41.952Z,16.85
2023-04-02T01:53:14.427Z,16.73
2023-04-02T01:55:47.298Z,15.95
2023-04-02T01:58:20.651Z,15.35
2023-04-02T02:00:56.893Z,13.75
2023-04-02T02:03:25.685Z,17.77
2023-04-02T02:05:54.326Z,17.00
2023-04-02T02:08:34.619Z,22.35
2023-04-02T02:11:04.880Z,17.75
2023-04-02T02:13:33.617Z,20.13
2023-04-02T02:16:06.228Z,14.50
2023-04-02T02:18:34.892Z,15.43
2023-04-02T02:21:09.274Z,15.60
2023-04-02T02:23:38.191Z,16.50
2023-04-02T02:26:08.041Z,16.40
2023-04-02T02:28:42.315Z,17.13
2023-04-02T02:31:19.488Z,11.18
2023-04-02T02:33:52.401Z,11.93
2023-04-02T02:36:28.130Z,13.20
2023-04-02T02:38:59.295Z,16.10
2023-04-02T02:41:39.042Z,13.45
2023-04-02T02:44:16.123Z,14.07
2023-04-02T02:46:51.135Z,16.17
2023-04-02T02:49:25.428Z,16.23
2023-04-02T02:52:00.164Z,14.10
2023-04-02T02:54:32.068Z,12.93
2023-04-02T02:57:09.184Z,15.80
2023-04-02T02:59:39.063Z,12.48
2023-04-02T03:02:09.237Z,14.38
2023-04-02T03:04:39.696Z,15.13
2023-04-02T03:07:10.577Z,12.18
2023-04-02T03:09:52.711Z,13.20
2023-04-02T03:12:39.761Z,13.13
2023-04-02T03:15:21.275Z,12.35
2023-04-02T03:17:57.726Z,15.93
2023-04-02T03:20:34.769Z,11.45
2023-04-02T03:23:13.412Z,15.15
2023-04-02T03:25:47.974Z,14.27
2023-04-02T03:28:22.995Z,11.13
2023-04-02T03:30:56.460Z,14.80
2023-04-02T03:33:31.377Z,12.15
2023-04-02T03:36:04.119Z,11.63
2023-04-02T03:38:35.904Z,13.55
2023-04-02T03:41:13.939Z,13.00
2023-04-02T03:43:46.413Z,15.32
2023-04-02T03:46:27.514Z,15.00
2023-04-02T03:49:01.728Z,12.52
2023-04-02T03:51:38.112Z,13.10
2023-04-02T03:54:08.957Z,14.02
2023-04-02T03:56:41.286Z,14.02
2023-04-02T03:59:21.220Z,14.60
2023-04-02T04:01:56.433Z,13.88
2023-04-02T04:06:59.375Z,12.25
2023-04-02T04:09:33.502Z,15.13
2023-04-02T04:12:16.664Z,14.32
2023-04-02T04:14:52.494Z,17.02
2023-04-02T04:17:30.366Z,12.75
2023-04-02T04:20:15.113Z,19.70
2023-04-02T04:22:44.731Z,12.52
2023-04-02T04:25:29.498Z,10.18
2023-04-02T04:28:09.074Z,10.20
2023-04-02T04:30:51.196Z,9.07
2023-04-02T04:33:25.707Z,11.43
2023-04-02T04:35:59.566Z,13.33
2023-04-02T04:38:33.914Z,15.80
2023-04-02T04:41:07.915Z,17.83
2023-04-02T04:43:47.026Z,12.85
2023-04-02T04:46:19.344Z,13.25
2023-04-02T04:48:55.635Z,20.95
2023-04-02T04:51:30.729Z,14.40
2023-04-02T04:53:59.016Z,12.70
2023-04-02T04:56:30.774Z,13.45
2023-04-02T04:59:04.807Z,10.10
2023-04-02T05:01:41.829Z,14.13
2023-04-02T05:04:18.863Z,13.90
2023-04-02T05:06:57.412Z,12.10
2023-04-02T05:09:32.109Z,12.05
2023-04-02T05:12:16.202Z,16.08
2023-04-02T05:15:05.795Z,13.95
2023-04-02T05:17:41.314Z,12.68
2023-04-02T05:20:19.684Z,17.38
2023-04-02T05:22:54.395Z,13.27
2023-04-02T05:25:27.224Z,10.48
2023-04-02T05:28:01.449Z,11.00
2023-04-02T05:30:49.221Z,12.27
2023-04-02T05:33:24.523Z,11.75
2023-04-02T05:36:00.473Z,11.32
2023-04-02T05:38:33.880Z,9.43
2023-04-02T05:41:06.220Z,15.13
2023-04-02T05:43:38.743Z,12.52
2023-04-02T05:46:17.193Z,14.05
2023-04-02T05:48:49.570Z,12.88
2023-04-02T05:51:22.833Z,13.75
2023-04-02T05:53:58.176Z,11.20
2023-04-02T05:56:31.561Z,12.43
2023-04-02T05:59:10.637Z,8.65
2023-04-02T06:01:45.716Z,16.27
2023-04-02T06:04:23.674Z,12.85
2023-04-02T06:07:04.808Z,9.65
2023-04-02T06:09:44.783Z,11.30
2023-04-02T06:12:28.532Z,10.82
2023-04-02T06:14:57.125Z,9.07
2023-04-02T06:17:28.482Z,10.05
2023-04-02T06:19:59.393Z,11.27
2023-04-02T06:22:41.871Z,13.07
2023-04-02T06:25:24.684Z,12.38
2023-04-02T06:27:56.891Z,8.90
2023-04-02T06:30:31.316Z,10.05
2023-04-02T06:33:00.145Z,10.35
2023-04-02T06:35:29.308Z,16.73
2023-04-02T06:38:01.669Z,9.48
2023-04-02T06:40:41.742Z,10.65
2023-04-02T06:43:22.394Z,8.30
2023-04-02T06:45:56.501Z,6.30
2023-04-02T06:48:26.600Z,7.97
2023-04-02T06:51:02.104Z,9.93
2023-04-02T06:53:37.081Z,10.98
2023-04-02T06:56:22.349Z,9.98
2023-04-02T06:58:53.011Z,8.60
2023-04-02T07:01:25.448Z,12.50
2023-04-02T07:03:57.844Z,11.63
2023-04-02T07:06:26.528Z,14.45
2023-04-02T07:08:57.362Z,10.77
2023-04-02T07:11:27.274Z,7.43
2023-04-02T07:13:55.551Z,11.90
2023-04-02T07:16:26.478Z,8.98
2023-04-02T07:18:56.033Z,8.88
2023-04-02T07:21:24.484Z,9.38
2023-04-02T07:23:52.835Z,5.55
2023-04-02T07:26:28.055Z,10.52
2023-04-02T07:31:29.997Z,10.77
2023-04-02T07:34:00.828Z,8.82
2023-04-02T07:36:31.346Z,11.50
2023-04-02T07:39:00.219Z,8.80
2023-04-02T07:41:30.236Z,10.45
2023-04-02T07:43:59.171Z,11.07
2023-04-02T07:46:28.084Z,7.38
2023-04-02T07:48:59.367Z,7.03
2023-04-02T07:51:28.501Z,14.35
2023-04-02T07:53:57.067Z,11.20
2023-04-02T07:56:27.482Z,12.18
2023-04-02T07:58:59.596Z,6.57
2023-04-02T08:01:29.810Z,6.75
2023-04-02T08:03:59.435Z,10.43
2023-04-02T08:06:31.465Z,12.60
2023-04-02T08:09:00.891Z,7.57
2023-04-02T08:11:34.757Z,9.02
2023-04-02T08:14:04.821Z,6.20
2023-04-02T08:16:50.010Z,8.93
2023-04-02T08:19:23.567Z,12.38
2023-04-02T08:21:54.612Z,12.40
2023-04-02T08:24:24.013Z,9.10
2023-04-02T08:26:56.161Z,9.45
2023-04-02T08:29:26.291Z,9.90
2023-04-02T08:31:56.486Z,8.32
2023-04-02T08:34:25.059Z,6.43
2023-04-02T08:36:57.379Z,10.60
2023-04-02T08:39:29.646Z,12.77
2023-04-02T08:42:05.945Z,7.82
2023-04-02T08:44:51.991Z,9.40
2023-04-02T08:47:25.924Z,11.10
2023-04-02T08:50:01.262Z,6.40
2023-04-02T08:55:03.362Z,7.68
2023-04-02T08:57:43.509Z,11.52
2023-04-02T09:00:30.214Z,7.03
2023-04-02T09:03:03.942Z,8.43
2023-04-02T09:05:38.452Z,11.57
2023-04-02T09:08:19.198Z,11.95
2023-04-02T09:10:56.185Z,11.70
2023-04-02T09:13:28.745Z,5.50
2023-04-02T09:16:05.812Z,8.25
2023-04-02T09:18:36.487Z,6.38
2023-04-02T09:21:28.478Z,8.82
2023-04-02T09:23:57.883Z,5.68
2023-04-02T09:26:29.971Z,8.13
2023-04-02T09:29:20.166Z,12.85
2023-04-02T09:31:57.325Z,6.32
2023-04-02T09:34:31.465Z,9.63
2023-04-02T09:37:10.687Z,9.60
2023-04-02T09:39:39.312Z,7.18
2023-04-02T09:42:09.565Z,10.85
2023-04-02T09:44:37.987Z,7.75
2023-04-02T09:47:26.289Z,10.70
2023-04-02T09:49:55.615Z,7.75
2023-04-02T09:52:29.553Z,6.78
2023-04-02T09:55:28.955Z,4.75
2023-04-02T09:58:17.822Z,8.60
2023-04-02T10:00:53.040Z,7.00
2023-04-02T10:03:31.939Z,9.38
2023-04-02T10:06:16.838Z,5.45
2023-04-02T10:08:46.857Z,10.20
2023-04-02T10:11:20.130Z,5.57
2023-04-02T10:13:57.911Z,7.78
2023-04-02T10:16:34.483Z,5.18
2023-04-02T10:19:26.548Z,6.25
2023-04-02T10:21:59.348Z,6.47
2023-04-02T10:24:30.142Z,6.28
2023-04-02T10:27:17.665Z,5.72
2023-04-02T10:30:17.345Z,9.30
2023-04-02T10:32:52.280Z,8.20
2023-04-02T10:35:39.571Z,7.78
2023-04-02T10:38:44.701Z,9.95
2023-04-02T10:41:32.520Z,6.93
2023-04-02T10:44:36.934Z,7.75
2023-04-02T10:47:33.518Z,8.98
2023-04-02T10:50:21.329Z,6.05
2023-04-02T10:52:59.357Z,7.90
2023-04-02T10:55:35.129Z,6.38
2023-04-02T10:58:09.555Z,9.00
2023-04-02T11:00:43.882Z,4.53
2023-04-02T11:03:20.386Z,8.73
2023-04-02T11:05:51.704Z,7.68
2023-04-02T11:08:25.855Z,5.75
2023-04-02T11:10:59.864Z,6.07
2023-04-02T11:13:33.342Z,5.28
2023-04-02T11:16:03.950Z,7.35
2023-04-02T11:18:36.767Z,4.15
2023-04-02T11:21:12.514Z,5.50
2023-04-02T11:23:58.512Z,8.13
2023-04-02T11:26:47.570Z,5.80
2023-04-02T11:29:24.861Z,7.55
2023-04-02T11:32:36.934Z,5.20
2023-04-02T11:35:39.325Z,7.32
2023-04-02T11:38:54.989Z,5.05
2023-04-02T11:42:04.099Z,7.97
2023-04-02T11:44:32.868Z,8.90
2023-04-02T11:47:19.955Z,6.15
2023-04-02T11:50:04.866Z,5.28
2023-04-02T11:52:54.596Z,9.65
2023-04-02T11:55:29.967Z,9.63
2023-04-02T12:02:03.197Z,9.10
2023-04-02T12:05:09.875Z,11.65
2023-04-02T12:10:57.694Z,5.05
2023-04-02T12:13:52.822Z,5.70
2023-04-02T12:16:24.228Z,3.70
2023-04-02T12:18:55.116Z,4.68
2023-04-02T12:21:26.153Z,6.25
2023-04-02T12:23:58.794Z,7.15
2023-04-02T12:26:38.427Z,6.90
2023-04-02T12:29:22.519Z,5.28
2023-04-02T12:31:51.463Z,3.55
2023-04-02T12:34:23.326Z,4.72
2023-04-02T12:36:59.561Z,7.05
2023-04-02T12:39:28.637Z,5.95
2023-04-02T12:42:25.674Z,8.20
2023-04-02T12:44:54.173Z,7.00
2023-04-02T12:47:24.997Z,9.02
2023-04-02T12:49:55.014Z,5.22
2023-04-02T12:52:28.771Z,5.72
2023-04-02T12:55:00.447Z,5.80
2023-04-02T12:57:41.323Z,5.95
2023-04-02T13:00:37.250Z,4.75
2023-04-02T13:03:22.670Z,4.65
2023-04-02T13:05:56.474Z,4.30
2023-04-02T13:08:28.911Z,5.80
2023-04-02T13:11:01.947Z,5.85
2023-04-02T13:13:35.945Z,6.63
2023-04-02T13:16:29.697Z,6.50
2023-04-02T13:19:24.945Z,5.80
2023-04-02T13:21:54.740Z,7.25
2023-04-02T13:24:25.574Z,4.90
2023-04-02T13:27:01.181Z,10.75
2023-04-02T13:29:32.830Z,4.93
2023-04-02T13:32:04.682Z,4.65
2023-04-02T13:34:37.533Z,5.03
2023-04-02T13:37:12.406Z,6.55
2023-04-02T13:39:40.856Z,4.95
2023-04-02T13:42:12.404Z,4.07
2023-04-02T13:44:44.940Z,7.05
2023-04-02T13:47:15.899Z,6.97
2023-04-02T13:49:44.164Z,6.82
2023-04-02T13:52:17.048Z,7.90
2023-04-02T13:54:52.486Z,4.40
2023-04-02T13:57:21.786Z,6.88
2023-04-02T13:59:52.383Z,7.90
2023-04-02T14:02:26.446Z,4.28
2023-04-02T14:05:04.528Z,5.70
2023-04-02T14:07:56.091Z,6.78
2023-04-02T14:10:40.126Z,5.03
2023-04-02T14:13:25.925Z,6.53
2023-04-02T14:19:05.082Z,4.15
2023-04-02T14:21:47.506Z,7.43
2023-04-02T14:24:26.405Z,4.82
2023-04-02T14:27:15.868Z,3.85
2023-04-02T14:30:00.738Z,6.40
2023-04-02T14:32:41.040Z,2.00
2023-04-02T14:35:19.866Z,4.53
2023-04-02T14:37:58.037Z,7.05
2023-04-02T14:40:33.478Z,4.93
2023-04-02T14:43:06.708Z,3.85
2023-04-02T14:45:59.918Z,4.72
2023-04-02T14:48:57.287Z,4.57
2023-04-02T14:51:37.218Z,5.30
2023-04-02T14:54:14.127Z,4.30
2023-04-02T14:56:51.535Z,4.55
2023-04-02T14:59:31.997Z,4.03
2023-04-02T15:02:05.599Z,4.80
2023-04-02T15:04:42.542Z,4.18
2023-04-02T15:07:23.769Z,5.03
2023-04-02T15:10:06.115Z,5.10
2023-04-02T15:12:38.081Z,6.75
2023-04-02T15:15:26.855Z,5.07
2023-04-02T15:17:55.501Z,4.70
2023-04-02T15:20:27.046Z,4.18
2023-04-02T15:23:08.482Z,4.85
2023-04-02T15:25:48.680Z,6.20
2023-04-02T15:28:29.122Z,6.00
2023-04-02T15:30:58.896Z,3.97
2023-04-02T15:33:57.392Z,4.10
2023-04-02T15:36:53.473Z,6.40
2023-04-02T15:39:46.998Z,7.20
2023-04-02T15:42:22.734Z,6.63
2023-04-02T15:45:30.430Z,3.78
2023-04-02T15:48:23.898Z,3.45
2023-04-02T15:51:07.057Z,6.82
2023-04-02T15:53:48.404Z,2.67
2023-04-02T15:56:26.496Z,5.25
2023-04-02T15:59:37.983Z,5.47
2023-04-02T16:02:39.306Z,4.30
2023-04-02T16:05:16.738Z,5.03
2023-04-02T16:08:31.129Z,4.07
2023-04-02T16:11:02.041Z,5.05
2023-04-02T16:13:33.302Z,4.28
2023-04-02T16:16:08.573Z,3.47
2023-04-02T16:21:20.225Z,5.43
2023-04-02T16:23:52.067Z,4.65
2023-04-02T16:26:52.297Z,2.80
2023-04-02T16:29:47.490Z,5.85
2023-04-02T16:32:59.585Z,2.90
2023-04-02T16:35:43.140Z,8.27
2023-04-02T16:38:41.344Z,2.53
2023-04-02T16:41:22.252Z,6.45
2023-04-02T16:44:06.989Z,4.93
2023-04-02T16:46:47.240Z,4.13
2023-04-02T16:49:26.135Z,4.63
2023-04-02T16:52:08.071Z,3.10
2023-04-02T16:54:47.766Z,4.32
2023-04-02T16:57:31.094Z,4.13
2023-04-02T17:00:17.868Z,4.78
2023-04-02T17:03:02.153Z,3.85
2023-04-02T17:05:42.101Z,4.03
2023-04-02T17:08:23.298Z,5.85
2023-04-02T17:10:57.028Z,5.70
2023-04-02T17:13:32.504Z,6.70
2023-04-02T17:16:13.818Z,5.05
2023-04-02T17:18:44.771Z,5.35
2023-04-02T17:21:21.650Z,5.15
2023-04-02T17:23:56.605Z,5.43
2023-04-02T17:26:28.118Z,6.93
2023-04-02T17:28:58.456Z,5.43
2023-04-02T17:31:34.122Z,4.05
2023-04-02T17:34:10.973Z,4.70
2023-04-02T17:36:50.206Z,4.90
2023-04-02T17:39:25.620Z,7.00
2023-04-02T17:44:51.694Z,4.93
2023-04-02T17:47:25.810Z,2.63
2023-04-02T17:50:36.195Z,4.97
2023-04-02T17:53:41.245Z,5.45
2023-04-02T17:56:30.817Z,5.80
2023-04-02T17:59:32.451Z,4.93
2023-04-02T18:02:26.259Z,3.72
2023-04-02T18:05:05.459Z,7.22
2023-04-02T18:07:45.408Z,5.63
2023-04-02T18:10:24.126Z,6.20
2023-04-02T18:13:00.954Z,4.13
2023-04-02T18:16:10.883Z,7.68
2023-04-02T18:19:09.352Z,8.35
2023-04-02T18:21:50.702Z,6.40
2023-04-02T18:24:34.293Z,6.53
2023-04-02T18:27:23.222Z,6.15
2023-04-02T18:30:01.096Z,6.13
2023-04-02T18:33:22.998Z,4.93
2023-04-02T18:36:01.222Z,3.35
2023-04-02T18:38:44.239Z,8.40
2023-04-02T18:41:38.936Z,8.15
2023-04-02T18:44:29.208Z,3.20
2023-04-02T18:47:06.101Z,5.13
2023-04-02T18:49:42.511Z,6.00
2023-04-02T18:52:16.072Z,3.65
2023-04-02T18:54:50.468Z,10.05
2023-04-02T18:57:25.007Z,6.35
2023-04-02T18:59:59.828Z,8.07
2023-04-02T19:02:43.349Z,5.55
2023-04-02T19:05:24.170Z,3.55
2023-04-02T19:08:03.551Z,7.97
2023-04-02T19:10:38.036Z,5.93
2023-04-02T19:13:16.140Z,6.73
2023-04-02T19:16:11.357Z,8.10
2023-04-02T19:18:53.883Z,6.82
2023-04-02T19:21:35.335Z,5.50
2023-04-02T19:24:22.171Z,6.82
2023-04-02T19:26:59.822Z,6.00
2023-04-02T19:29:44.258Z,10.95
2023-04-02T19:32:19.288Z,4.90
2023-04-02T19:34:56.627Z,3.97
2023-04-02T19:37:35.590Z,6.30
2023-04-02T19:40:31.301Z,4.97
2023-04-02T19:43:01.268Z,6.05
2023-04-02T19:45:34.896Z,6.47
2023-04-02T19:48:13.378Z,5.28
2023-04-02T19:50:42.163Z,9.20
2023-04-02T19:53:10.924Z,10.98
2023-04-02T19:55:40.377Z,4.65
2023-04-02T19:58:20.028Z,6.07
2023-04-02T20:00:48.595Z,3.60
2023-04-02T20:03:17.022Z,6.57
2023-04-02T20:05:45.425Z,6.88
2023-04-02T20:08:14.137Z,5.28
2023-04-02T20:10:42.768Z,4.03
2023-04-02T20:13:12.875Z,3.30
2023-04-02T20:15:41.861Z,5.00
2023-04-02T20:18:10.929Z,4.25
2023-04-02T20:20:39.572Z,3.03
2023-04-02T20:23:08.923Z,7.07
2023-04-02T20:25:37.549Z,2.67
2023-04-02T20:28:07.497Z,6.05
2023-04-02T20:30:38.207Z,4.47
2023-04-02T20:33:06.836Z,2.20
2023-04-02T20:35:35.694Z,3.50
2023-04-02T20:38:06.684Z,4.32
2023-04-02T20:40:35.539Z,3.25
2023-04-02T20:43:04.509Z,6.18
2023-04-02T20:45:32.911Z,4.13
2023-04-02T20:48:03.012Z,7.13
2023-04-02T20:50:31.713Z,4.63
2023-04-02T20:53:03.290Z,3.55
2023-04-02T20:55:35.109Z,4.55
2023-04-02T20:58:03.304Z,7.03
2023-04-02T21:00:32.106Z,2.85
2023-04-02T21:03:02.448Z,4.47
2023-04-02T21:05:30.804Z,3.72
2023-04-02T21:07:59.214Z,6.13
2023-04-02T21:10:28.730Z,5.28
2023-04-02T21:12:56.992Z,6.57
2023-04-02T21:15:25.436Z,7.75
2023-04-02T21:17:53.708Z,6.57
2023-04-02T21:20:23.551Z,1.95
2023-04-02T21:22:51.921Z,6.80
2023-04-02T21:25:20.221Z,4.60
2023-04-02T21:27:48.444Z,4.13
2023-04-02T21:30:17.071Z,3.88
2023-04-02T21:32:45.289Z,6.15
2023-04-02T21:35:13.625Z,7.15
2023-04-02T21:37:44.212Z,6.47
2023-04-02T21:40:13.270Z,4.60
2023-04-02T21:42:41.669Z,6.40
2023-04-02T21:45:10.660Z,6.28
2023-04-02T21:47:40.620Z,4.60
2023-04-02T21:50:10.967Z,4.75
2023-04-02T21:52:39.253Z,4.72
2023-04-02T21:55:10.619Z,2.83
2023-04-02T21:57:39.322Z,4.97
2023-04-02T22:00:12.344Z,3.30
2023-04-02T22:02:40.836Z,4.55
2023-04-02T22:05:09.773Z,4.72
2023-04-02T22:07:38.083Z,4.47
2023-04-02T22:10:08.583Z,6.97
2023-04-02T22:12:37.020Z,6.18
2023-04-02T22:15:06.238Z,4.15
2023-04-02T22:17:34.563Z,3.42
2023-04-02T22:20:02.961Z,5.72
2023-04-02T22:22:31.182Z,10.18
2023-04-02T22:25:00.731Z,4.68
2023-04-02T22:27:30.839Z,5.97
2023-04-02T22:30:01.836Z,6.35
2023-04-02T22:32:30.395Z,3.90
2023-04-02T22:34:58.656Z,5.68
2023-04-02T22:37:26.835Z,3.70
2023-04-02T22:39:55.250Z,3.20
2023-04-02T22:42:23.611Z,4.22
2023-04-02T22:44:53.396Z,4.20
2023-04-02T22:47:24.472Z,4.43
2023-04-02T22:49:54.252Z,5.70
2023-04-02T22:52:22.477Z,8.20
2023-04-02T22:54:53.624Z,4.43
2023-04-02T22:57:22.015Z,4.78
2023-04-02T22:59:50.224Z,7.00
2023-04-02T23:02:20.420Z,5.18
2023-04-02T23:04:48.759Z,3.15
2023-04-02T23:07:17.226Z,4.97
2023-04-02T23:09:45.563Z,3.33
2023-04-02T23:12:13.961Z,5.65
2023-04-02T23:14:42.622Z,7.50
2023-04-02T23:17:11.072Z,4.90
2023-04-02T23:19:40.656Z,4.13
2023-04-02T23:22:09.375Z,4.97
2023-04-02T23:24:37.722Z,4.75
2023-04-02T23:27:06.023Z,3.92
2023-04-02T23:29:34.482Z,5.10
2023-04-02T23:32:02.760Z,3.58
2023-04-02T23:34:31.667Z,4.90
2023-04-02T23:37:01.422Z,5.68
2023-04-02T23:39:29.849Z,6.38
2023-04-02T23:41:59.104Z,10.15
2023-04-02T23:44:27.819Z,9.75
2023-04-02T23:46:56.233Z,5.07
2023-04-02T23:49:24.457Z,5.22
2023-04-02T23:51:53.060Z,5.28
2023-04-02T23:54:22.905Z,4.63
2023-04-02T23:56:51.094Z,3.25
2023-04-02T23:59:19.263Z,4.55
